Tiempo atmosférico en la estación meteorológica de Zarza La Mayor, Cáceres (336 m.)



Fecha
DESCASC
Temp. máxima en grados centígrados (hora)
DESCASC
Temp. mínima en grados centígrados (hora)
DESCASC
Temp. media en grados centígrados
DESCASC
Racha de viento máxima en m/sg (hora)
DESCASC
Velocidad máxima media en intervalos de 10 minutos(hora)
DESCASC
Precipitaciones diarias en mm
DESCASC
Precipitaciones de 00:00 a 06:00 en mm
DESCASC
Precipitaciones de 06:00 a 12:00 en mm
DESCASC
Precipitaciones de 12:00 a 18:00 en mm
DESCASC
Precipitaciones de 18:00 a 24:00 en mm
DESCASC
19-09-2019 31.6 (18:10) 16.3 (08:40) 23.9 8.33 (20:10) 5.83 (20:10) 0 0 0 0 0
18-09-2019 31.3 (16:10) 16.6 (08:00) 23.9 6.11 (14:00) 3.06 (14:00) 0 0 0 0 0
17-09-2019 33 (17:10) 19.5 (00:00) 26.3 12.5 (19:00) 8.89 (19:00) 0 0 0 0 0
16-09-2019 29.7 (14:20) 20.2 (00:00) 25 5.28 (16:00) 3.61 (19:50) 0 0 0 0 0
15-09-2019 29.4 (16:00) 16.7 (00:00) 23.1 7.22 (11:10) 5 (19:00) 0 0 0 0 0
14-09-2019 27.2 (14:40) 19.4 (00:00) 23.3 13.89 (14:10) 8.61 (13:20) 0.2 0 0 0.2 0
13-09-2019 29.5 (13:50) 20.5 (00:00) 25 13.61 (16:10) 8.61 (14:00) 0 0 0 0 0
12-09-2019 31.1 (16:50) 17.1 (00:00) 24.1 12.78 (17:50) 7.22 (14:30) 0 0 0 0 0
11-09-2019 28.7 (17:30) 15.4 (00:00) 22.1 16.67 (11:10) 11.11 (11:10) 0 0 0 0 0
10-09-2019 25.4 (17:30) 15.3 (04:00) 20.3 15 (08:20) 8.89 (12:30) 0 0 0 0 0
09-09-2019 31.1 (15:20) 16.2 (08:10) 23.7 14.44 (18:50) 8.89 (18:50) 0 0 0 0 0
08-09-2019 33.1 (17:50) 17.7 (00:00) 25.4 8.61 (17:20) 4.72 (10:20) 0 0 0 0 0
07-09-2019 32.3 (18:20) 15.5 (00:00) 23.9 10 (12:20) 6.11 (09:40) 0 0 0 0 0
06-09-2019 30.6 (18:00) 16 (00:00) 23.3 9.72 (00:20) 6.11 (09:30) 0 0 0 0 0
05-09-2019 32.8 (17:10) 20.4 (00:00) 26.6 11.67 (12:50) 6.94 (12:50) 0 0 0 0 0
04-09-2019 37.4 (16:50) 21.5 (00:00) 29.5 13.89 (15:30) 6.67 (18:00) 0 0 0 0 0
03-09-2019 37.4 (18:10) 22 (00:00) 29.7 7.5 (10:30) 4.72 (10:30) 0 0 0 0 0
02-09-2019 36 (19:10) 21.1 (00:00) 28.6 9.72 (11:00) 6.11 (11:30) 0 0 0 0 0
01-09-2019 36.1 (17:50) 18.1 (00:00) 27.1 8.89 (16:50) 5.28 (19:40) 0 0 0 0 0
31-08-2019 37.1 (17:00) 22.3 (00:00) 29.7 9.72 (18:20) 6.39 (20:50) 0 0 0 0 0
30-08-2019 37.4 (18:40) 19.4 (00:00) 28.4 8.33 (17:40) 4.44 (17:00) 0 0 0 0 0
29-08-2019 36.6 (17:20) 17.8 (00:00) 27.2 8.33 (19:10) 5 (15:20) 0 0 0 0 0
28-08-2019 34.8 (17:40) 17.7 (00:00) 26.3 7.5 (17:10) 3.89 (16:10) 0 0 0 0 0
27-08-2019 31.9 (16:40) 17.2 (00:00) 24.6 7.22 (18:20) 3.61 (06:00) 0 0 0 0 0
26-08-2019 28.5 (17:50) 16.4 (00:00) 22.4 11.94 (08:10) 8.06 (10:40) 10 3 7 0 0
25-08-2019 34.3 (17:30) 20.7 (00:00) 27.5 12.22 (18:50) 7.22 (18:50) 0 0 0 0 0
24-08-2019 38.2 (18:20) 23.3 (00:00) 30.8 9.17 (21:40) 5 (21:50) 0 0 0 0 0
23-08-2019 37.2 (17:30) 22.8 (00:00) 30 8.61 (13:20) 4.72 (11:30) 0 0 0 0 0

Gráficas

Temp. máximas Temp. mínimas Temp. medias Precipitaciones Rachas de viento máximas Velocidades máximas media en intervalos de 10 minutos

Datos horarios

Fecha y hora oficial Temperatura (ºC) Velocidad del viento (km/h) Dirección del viento Racha (km/h) Dirección de racha Precipitación (mm) Presión (hPa) Tendencia (hPa) Humedad (%)
2019-09-21 23:00:00 18 17 Sudoeste 33 Sudoeste 1.6 -- -- 95
2019-09-21 22:00:00 19.1 8 Oeste 12 Oeste 2.4 -- -- 94
2019-09-21 21:00:00 19.3 0 Calma 4 Norte 0 -- -- 92
2019-09-21 20:00:00 19.1 2 Sur 19 Sur 0.6 -- -- 92
2019-09-21 19:00:00 19.4 15 Sur 30 Sur 0.2 -- -- 88
2019-09-21 18:00:00 20.1 14 Sudeste 21 Sudeste 0.4 -- -- 90
2019-09-21 17:00:00 19.3 11 Sudeste 25 Sudeste 0.6 -- -- 93
2019-09-21 16:00:00 19.1 17 Sudeste 28 Sudeste 0.8 -- -- 94
2019-09-21 15:00:00 18.1 16 Sudeste 26 Sudeste 2.6 -- -- 93
2019-09-21 14:00:00 18.1 17 Sudeste 31 Sudeste 0 -- -- 91
2019-09-21 13:00:00 17.6 18 Sudeste 28 Sudeste 0.2 -- -- 92
2019-09-21 12:00:00 17.1 15 Sudeste 26 Sudeste 1.8 -- -- 93
2019-09-21 11:00:00 17.1 17 Sudeste 32 Sudeste 1.8 -- -- 93
2019-09-21 10:00:00 17 17 Sudeste 29 Sudeste 0.8 -- -- 92
2019-09-21 09:00:00 16.9 18 Sudeste 28 Sudeste 0.8 -- -- 91
2019-09-21 08:00:00 17.3 7 Sudeste 17 Sur 2.4 -- -- 89
2019-09-21 07:00:00 18.6 14 Sudeste 27 Sudeste 0 -- -- 75
2019-09-21 06:00:00 19 9 Sudeste 13 Sudeste 0 -- -- 65
2019-09-21 05:00:00 18.8 2 Este 5 Este 0 -- -- 67
2019-09-21 04:00:00 19.1 3 Sudoeste 10 Sudeste 0 -- -- 68
2019-09-21 03:00:00 19.4 5 Sur 10 Sur 0 -- -- 67
2019-09-21 02:00:00 19.2 7 Sur 13 Sur 0 -- -- 67
2019-09-21 01:00:00 19.5 9 Sur 13 Sudoeste 0 -- -- 64
2019-09-21 00:00:00 19.7 7 Sur 10 Sur 0 -- -- 62
2019-09-20 23:00:00 19.4 3 Sudoeste 5 Sudoeste 0 -- -- 61
2019-09-20 22:00:00 20.1 4 Sudoeste 10 Sudoeste 0 -- -- 59
2019-09-20 21:00:00 21.4 7 Sudoeste 22 Sudoeste 0 -- -- 56
2019-09-20 20:00:00 22 14 Sudoeste 28 Sudoeste 0 -- -- 53
2019-09-20 19:00:00 23.2 23 Sudoeste 32 Oeste 0 -- -- 47
2019-09-20 18:00:00 25.1 15 Sudoeste 32 Sudoeste 0 -- -- 47
2019-09-20 17:00:00 25.3 25 Sudoeste 39 Sur 0 -- -- 47
2019-09-20 16:00:00 26.7 20 Sudoeste 35 Sudeste 0 -- -- 44
2019-09-20 15:00:00 26.6 16 Sur 26 Sur 0 -- -- 40
2019-09-20 14:00:00 26.1 14 Este 25 Este 0 -- -- 43
2019-09-20 13:00:00 25.5 8 Sudeste 15 Este 0 -- -- 47
2019-09-20 12:00:00 23.3 3 Noroeste 9 Este 0 -- -- 54
2019-09-20 11:00:00 21 2 Este 9 Sudeste 0 -- -- 63
2019-09-20 10:00:00 18 3 Norte 7 Nordeste 0 -- -- 75
2019-09-20 09:00:00 17.4 0 Calma 5 Sudoeste 0 -- -- 75
2019-09-20 08:00:00 17.3 2 Oeste 5 Sudoeste 0 -- -- 75
2019-09-20 07:00:00 17.5 3 Oeste 9 Sudoeste 0 -- -- 74
2019-09-20 06:00:00 18.2 2 Noroeste 13 Sudoeste 0 -- -- 71
2019-09-20 05:00:00 18.8 5 Sur 16 Sudoeste 0 -- -- 69
2019-09-20 04:00:00 19.7 15 Sudoeste 22 Sudoeste 0 -- -- 64
2019-09-20 03:00:00 20.9 10 Sudoeste 14 Sudoeste 0 -- -- 55
2019-09-20 02:00:00 21.6 10 Sudoeste 14 Sudoeste 0 -- -- 53
2019-09-20 01:00:00 22 9 Sudoeste 15 Oeste 0 -- -- 52
2019-09-20 00:00:00 23 12 Sudoeste 15 Sudoeste 0 -- -- 48
2019-09-19 23:00:00 23.8 10 Sudoeste 21 Sudoeste 0 -- -- 45
2019-09-19 22:00:00 24.5 10 Sudoeste 25 Sudoeste 0 -- -- 44
2019-09-19 21:00:00 26 15 Sudoeste 30 Sudoeste 0 -- -- 39
2019-09-19 20:00:00 28.3 20 Sudoeste 29 Sudoeste 0 -- -- 35
2019-09-19 19:00:00 30.1 10 Sur 22 Sur 0 -- -- 30
2019-09-19 18:00:00 31.3 8 Sudeste 24 Sudeste 0 -- -- 29
2019-09-19 17:00:00 31.1 10 Sur 22 Sur 0 -- -- 30
2019-09-19 16:00:00 29.8 8 Este 18 Sur 0 -- -- 34
2019-09-19 15:00:00 30 5 Oeste 20 Sur 0 -- -- 34
2019-09-19 14:00:00 28.6 9 Oeste 18 Sudoeste 0 -- -- 38
2019-09-19 13:00:00 26.8 4 Oeste 9 Oeste 0 -- -- 45
2019-09-19 12:00:00 24 4 Norte 7 Norte 0 -- -- 53
2019-09-19 11:00:00 21.1 3 Oeste 12 Sudoeste 0 -- -- 64
2019-09-19 10:00:00 18.8 6 Sudoeste 12 Sudoeste 0 -- -- 73
2019-09-19 09:00:00 16.7 4 Sudoeste 8 Sudoeste 0 -- -- 81
2019-09-19 08:00:00 16.5 6 Sudoeste 14 Sudoeste 0 -- -- 80
2019-09-19 07:00:00 17.4 8 Sudoeste 14 Sudoeste 0 -- -- 78
2019-09-19 06:00:00 17.9 4 Sudoeste 12 Sudoeste 0 -- -- 75
2019-09-19 05:00:00 18.4 5 Oeste 17 Sudoeste 0 -- -- 73
2019-09-19 04:00:00 19.3 9 Sudoeste 13 Oeste 0 -- -- 68
2019-09-19 03:00:00 20.8 7 Oeste 13 Sudoeste 0 -- -- 61
2019-09-19 02:00:00 21.8 2 Sudoeste 14 Sudoeste 0 -- -- 56
2019-09-19 01:00:00 23.2 11 Sudoeste 15 Sudoeste 0 -- -- 48
2019-09-19 00:00:00 24.2 10 Sudoeste 16 Oeste 0 -- -- 46
2019-09-18 23:00:00 24.9 10 Sudoeste 16 Oeste 0 -- -- 38
2019-09-18 22:00:00 26.1 10 Sur 13 Sur 0 -- -- 31
2019-09-18 21:00:00 27.2 9 Sur 15 Sur 0 -- -- 31
2019-09-18 20:00:00 29.5 5 Sur 10 Este 0 -- -- 31
2019-09-18 19:00:00 30.6 5 Sudoeste 10 Este 0 -- -- 31
2019-09-18 18:00:00 29.9 5 Sur 15 Este 0 -- -- 32
2019-09-18 17:00:00 30.8 8 Sudeste 17 Este 0 -- -- 31
2019-09-18 16:00:00 30.8 7 Sur 17 Sudeste 0 -- -- 34
2019-09-18 15:00:00 29.5 6 Este 19 Sudeste 0 -- -- 37
2019-09-18 14:00:00 28.4 11 Sudeste 22 Sudeste 0 -- -- 39
2019-09-18 13:00:00 26.8 7 Sudeste 19 Nordeste 0 -- -- 41
2019-09-18 12:00:00 24.9 7 Este 15 Sudeste 0 -- -- 46
2019-09-18 11:00:00 21.2 4 Este 14 Nordeste 0 -- -- 58
2019-09-18 10:00:00 19.5 8 Nordeste 13 Nordeste 0 -- -- 64
2019-09-18 09:00:00 17.2 7 Nordeste 16 Nordeste 0 -- -- 73
2019-09-18 08:00:00 16.6 8 Este 16 Nordeste 0 -- -- 75
2019-09-18 07:00:00 16.9 8 Nordeste 15 Nordeste 0 -- -- 72
2019-09-18 06:00:00 16.9 3 Norte 11 Nordeste 0 -- -- 69
2019-09-18 05:00:00 17.5 5 Nordeste 8 Este 0 -- -- 68
2019-09-18 04:00:00 18.3 9 Este 15 Sudeste 0 -- -- 65
2019-09-18 03:00:00 18.4 7 Sudeste 12 Sudeste 0 -- -- 63
2019-09-18 02:00:00 18.7 6 Nordeste 9 Nordeste 0 -- -- 64
2019-09-18 01:00:00 19.3 5 Nordeste 9 Noroeste 0 -- -- 60
2019-09-18 00:00:00 20 7 Norte 23 Este 0 -- -- 59
2019-09-17 23:00:00 21.1 13 Este 26 Este 0 -- -- 55
2019-09-17 22:00:00 21.8 15 Nordeste 29 Nordeste 0 -- -- 52
2019-09-17 21:00:00 23.2 13 Nordeste 34 Nordeste 0 -- -- 48
2019-09-15 18:00:00 -- -- -- -- -- -- -- -- --
2019-09-15 17:00:00 -- -- -- -- -- -- -- -- --
2019-09-15 16:00:00 29.4 9 Sudeste 20 Sudeste 0 -- -- 38
2019-09-15 15:00:00 27.5 8 Este 18 Sudeste 0 -- -- 44
2019-09-15 14:00:00 25.5 8 Nordeste 23 Este 0 -- -- 51
2019-09-15 13:00:00 23.9 13 Este 25 Este 0 -- -- 58
2019-09-15 12:00:00 23.4 13 Nordeste 26 Norte 0 -- -- 59
2019-09-15 11:00:00 22.2 11 Nordeste 20 Nordeste 0 -- -- 64
2019-09-15 10:00:00 19 5 Este 9 Este 0 -- -- 73
2019-09-15 09:00:00 16.9 0 Calma 8 Nordeste 0 -- -- 79
2019-09-15 08:00:00 17.3 5 Norte 8 Nordeste 0 -- -- 78
2019-09-15 07:00:00 17.3 2 Noroeste 13 Norte 0 -- -- 77
2019-09-15 06:00:00 17.8 5 Norte 13 Nordeste 0 -- -- 76
2019-09-15 05:00:00 19.1 7 Nordeste 16 Nordeste 0 -- -- 70
2019-09-15 04:00:00 18.9 9 Nordeste 17 Nordeste 0 -- -- 69
2019-09-15 03:00:00 18.8 3 Noroeste 11 Nordeste 0 -- -- 66
2019-09-15 02:00:00 19.5 3 Nordeste 14 Este 0 -- -- 65
2019-09-15 01:00:00 20.5 10 Nordeste 20 Nordeste 0 -- -- 62
2019-09-15 00:00:00 20.6 11 Este 21 Este 0 -- -- 61
2019-09-14 23:00:00 21.4 15 Este 30 Este 0 -- -- 59
2019-09-14 22:00:00 22.4 11 Este 24 Este 0 -- -- 56
2019-09-14 21:00:00 22.8 13 Nordeste 22 Nordeste 0 -- -- 54
2019-09-14 20:00:00 22.7 12 Este 30 Este 0 -- -- 53
2019-09-14 19:00:00 23.3 21 Este 32 Este 0 -- -- 50
2019-09-14 18:00:00 23.4 9 Norte 17 Nordeste 0 -- -- 53
2019-09-14 17:00:00 22 10 Este 31 Nordeste 0.2 -- -- 60
2019-09-14 16:00:00 23 17 Nordeste 44 Nordeste 0 -- -- 52
2019-09-14 15:00:00 25.3 28 Este 50 Nordeste 0 -- -- 43
2019-09-14 14:00:00 26.4 26 Nordeste 46 Este 0 -- -- 40
2019-09-14 13:00:00 26 27 Este 43 Este 0 -- -- 40
2019-09-14 12:00:00 25.2 25 Este 43 Este 0 -- -- 45
2019-09-14 11:00:00 24 16 Nordeste 35 Nordeste 0 -- -- 49
2019-09-14 10:00:00 22.1 19 Nordeste 31 Nordeste 0 -- -- 55
2019-09-14 09:00:00 20.2 13 Nordeste 30 Este 0 -- -- 63
2019-09-14 08:00:00 19.7 12 Nordeste 27 Nordeste 0 -- -- 66
2019-09-14 07:00:00 19.5 12 Nordeste 31 Nordeste 0 -- -- 66
2019-09-14 06:00:00 -- -- -- -- -- -- -- -- --
2019-09-14 05:00:00 -- -- -- -- -- -- -- -- --
2019-09-14 04:00:00 20.1 17 Nordeste 30 Nordeste 0 -- -- 64
2019-09-14 03:00:00 19.6 9 Nordeste 18 Nordeste 0 -- -- 65
2019-09-14 02:00:00 20.3 12 Nordeste 28 Nordeste 0 -- -- 61
2019-09-14 01:00:00 21 20 Nordeste 37 Nordeste 0 -- -- 59
2019-09-14 00:00:00 21.3 16 Nordeste 28 Este 0 -- -- 57
2019-09-13 23:00:00 21.3 18 Este 29 Este 0 -- -- 54
2019-09-13 22:00:00 21.8 16 Este 29 Este 0 -- -- 50
2019-09-13 21:00:00 22.7 23 Este 33 Este 0 -- -- 47
2019-09-13 20:00:00 22.7 17 Este 29 Este 0 -- -- 47
2019-09-13 19:00:00 22.9 21 Este 31 Este 0 -- -- 48
2019-09-13 18:00:00 24.2 18 Este 37 Nordeste 0 -- -- 42
2019-09-13 17:00:00 24.6 20 Nordeste 49 Nordeste 0 -- -- 41
2019-09-13 16:00:00 28.3 27 Este 47 Este 0 -- -- 30
2019-09-13 15:00:00 28.9 25 Este 43 Este 0 -- -- 28
2019-09-13 14:00:00 29.3 31 Este 47 Este 0 -- -- 28
2019-09-13 13:00:00 27.9 19 Este 31 Nordeste 0 -- -- 29
2019-09-13 12:00:00 26.3 17 Nordeste 26 Nordeste 0 -- -- 37
2019-09-13 11:00:00 24.7 15 Este 24 Este 0 -- -- 34
2019-09-13 10:00:00 22.3 6 Nordeste 14 Nordeste 0 -- -- 43
2019-09-13 09:00:00 20.7 8 Nordeste 21 Norte 0 -- -- 46
2019-09-13 08:00:00 20.9 12 Nordeste 19 Nordeste 0 -- -- 46
2019-09-13 07:00:00 21.4 13 Nordeste 29 Este 0 -- -- 45
2019-09-13 06:00:00 22.3 15 Nordeste 25 Nordeste 0 -- -- 44
2019-09-13 05:00:00 22 12 Nordeste 21 Nordeste 0 -- -- 48
2019-09-13 04:00:00 21.5 7 Norte 10 Nordeste 0 -- -- 50
2019-09-13 03:00:00 22.9 7 Nordeste 14 Nordeste 0 -- -- 46
2019-09-13 02:00:00 23.1 7 Nordeste 14 Nordeste 0 -- -- 45
2019-09-13 01:00:00 23.7 9 Nordeste 19 Nordeste 0 -- -- 44
2019-09-13 00:00:00 24.5 8 Nordeste 16 Este 0 -- -- 42
2019-09-12 23:00:00 25.2 12 Este 21 Este 0 -- -- 41
2019-09-12 22:00:00 25.8 12 Este 30 Este 0 -- -- 40
2019-09-12 21:00:00 27.8 23 Este 36 Este 0 -- -- 35
2019-09-12 20:00:00 29.6 23 Este 35 Este 0 -- -- 30
2019-09-12 19:00:00 31 14 Nordeste 31 Nordeste 0 -- -- 28
2019-09-12 18:00:00 31.1 18 Este 46 Nordeste 0 -- -- 28
2019-09-12 17:00:00 31.1 17 Nordeste 36 Nordeste 0 -- -- 27
2019-09-12 16:00:00 30.4 22 Nordeste 45 Nordeste 0 -- -- 29
2019-09-12 15:00:00 29.3 19 Nordeste 45 Nordeste 0 -- -- 30
2019-09-12 14:00:00 28.1 23 Nordeste 40 Nordeste 0 -- -- 32
2019-09-12 13:00:00 26.9 23 Nordeste 37 Nordeste 0 -- -- 33
2019-09-12 12:00:00 25 17 Nordeste 33 Nordeste 0 -- -- 36
2019-09-12 11:00:00 23.6 14 Norte 24 Norte 0 -- -- 38
2019-09-12 10:00:00 20.6 13 Norte 20 Norte 0 -- -- 44
2019-09-12 09:00:00 17.7 8 Norte 14 Norte 0 -- -- 51
2019-09-12 08:00:00 17.4 4 Nordeste 13 Nordeste 0 -- -- 52
2019-09-12 07:00:00 18.2 8 Norte 14 Nordeste 0 -- -- 50
2019-09-12 06:00:00 18.7 8 Nordeste 15 Nordeste 0 -- -- 49
2019-09-12 05:00:00 19.3 11 Nordeste 16 Nordeste 0 -- -- 47
2019-09-12 04:00:00 20.2 12 Nordeste 20 Nordeste 0 -- -- 44
2019-09-12 03:00:00 20.9 9 Nordeste 31 Nordeste 0 -- -- 43
2019-09-12 02:00:00 21.6 16 Nordeste 29 Nordeste 0 -- -- 41
2019-09-12 01:00:00 22.3 16 Nordeste 32 Nordeste 0 -- -- 39
2019-09-12 00:00:00 22.6 16 Nordeste 27 Nordeste 0 -- -- 38
2019-09-11 23:00:00 23 11 Nordeste 21 Nordeste 0 -- -- 36
2019-09-11 22:00:00 23.5 10 Norte 21 Norte 0 -- -- 35
2019-09-11 21:00:00 24.9 14 Norte 28 Nordeste 0 -- -- 32
2019-09-11 20:00:00 26.8 18 Nordeste 29 Nordeste 0 -- -- 28
2019-09-11 19:00:00 27.8 14 Nordeste 35 Nordeste 0 -- -- 27
2019-09-11 18:00:00 28.5 12 Norte 31 Nordeste 0 -- -- 26
2019-09-11 17:00:00 28.1 18 Norte 35 Nordeste 0 -- -- 27
2019-09-11 16:00:00 27.4 22 Norte 39 Nordeste 0 -- -- 27
2019-09-11 15:00:00 26.7 17 Nordeste 38 Norte 0 -- -- 28
2019-09-11 14:00:00 25.1 22 Nordeste 44 Nordeste 0 -- -- 30
2019-09-11 13:00:00 24.1 25 Nordeste 54 Nordeste 0 -- -- 31
2019-09-11 12:00:00 22.3 33 Nordeste 60 Norte 0 -- -- 35
2019-09-11 11:00:00 21.2 33 Nordeste 51 Nordeste 0 -- -- 37
2019-09-11 10:00:00 19.2 17 Norte 29 Norte 0 -- -- 41
2019-09-11 09:00:00 17 11 Norte 17 Norte 0 -- -- 47
2019-09-11 08:00:00 15.5 9 Norte 31 Norte 0 -- -- 52
2019-09-11 07:00:00 16 22 Norte 30 Norte 0 -- -- 51
2019-09-11 06:00:00 16.6 25 Norte 37 Norte 0 -- -- 50
2019-09-11 05:00:00 16.6 17 Norte 30 Norte 0 -- -- 48
2019-09-11 04:00:00 17.4 14 Norte 45 Norte 0 -- -- 45
2019-09-11 03:00:00 18.5 31 Norte 47 Norte 0 -- -- 42
2019-09-11 02:00:00 18.8 29 Norte 42 Norte 0 -- -- 40
2019-09-11 01:00:00 18.8 21 Noroeste 28 Noroeste 0 -- -- 39
2019-09-11 00:00:00 19.3 13 Norte 31 Noroeste 0 -- -- 36
2019-09-10 23:00:00 20.4 21 Noroeste 33 Noroeste 0 -- -- 33
2019-09-10 22:00:00 21 15 Noroeste 22 Noroeste 0 -- -- 29
2019-09-10 21:00:00 22.1 17 Noroeste 30 Noroeste 0 -- -- 27
2019-09-10 20:00:00 23.6 18 Noroeste 36 Noroeste 0 -- -- 24
2019-09-10 19:00:00 24.7 25 Noroeste 43 Noroeste 0 -- -- 23
2019-09-10 18:00:00 25.3 23 Noroeste 46 Noroeste 0 -- -- 24
2019-09-10 17:00:00 25 25 Norte 40 Norte 0 -- -- 23
2019-09-10 16:00:00 24.8 20 Norte 37 Norte 0 -- -- 23
2019-09-10 15:00:00 23.4 18 Norte 43 Norte 0 -- -- 26
2019-09-10 14:00:00 22.5 28 Norte 40 Norte 0 -- -- 28
2019-09-10 13:00:00 20.9 24 Norte 44 Noroeste 0 -- -- 32
2019-09-10 12:00:00 20 24 Norte 46 Norte 0 -- -- 34
2019-09-10 11:00:00 18.3 26 Norte 42 Norte 0 -- -- 37
2019-09-10 10:00:00 17.1 17 Norte 37 Noroeste 0 -- -- 42
2019-09-10 09:00:00 15.7 24 Noroeste 54 Noroeste 0 -- -- 47
2019-09-10 08:00:00 16 23 Noroeste 40 Noroeste 0 -- -- 52
2019-09-10 07:00:00 16.4 21 Noroeste 33 Noroeste 0 -- -- 63
2019-09-10 06:00:00 16.7 10 Oeste 25 Oeste 0 -- -- 62
2019-09-10 05:00:00 16.6 11 Oeste 20 Noroeste 0 -- -- 62
2019-09-10 04:00:00 15.3 7 Sudoeste 17 Sudoeste 0 -- -- 60
2019-09-10 03:00:00 16.7 7 Oeste 24 Oeste 0 -- -- 57
2019-09-10 02:00:00 17.4 16 Oeste 34 Oeste 0 -- -- 53
2019-09-10 01:00:00 17.7 23 Sudoeste 33 Sudoeste 0 -- -- 51
2019-09-10 00:00:00 19 19 Oeste 30 Sudoeste 0 -- -- 46
2019-09-09 23:00:00 19.9 22 Sudoeste 29 Sudoeste 0 -- -- 42
2019-09-09 22:00:00 21.5 18 Sudoeste 33 Sudoeste 0 -- -- 37
2019-09-09 21:00:00 23.6 24 Sudoeste 36 Sudoeste 0 -- -- 35
2019-09-09 20:00:00 25.6 25 Sudoeste 40 Sudoeste 0 -- -- 27
2019-09-09 19:00:00 26.9 29 Sudoeste 52 Sudoeste 0 -- -- 29
2019-09-09 18:00:00 28.3 30 Sudoeste 45 Sudoeste 0 -- -- 24
2019-09-09 17:00:00 30.8 25 Sudoeste 40 Sudoeste 0 -- -- 20
2019-09-09 16:00:00 31.1 21 Sudoeste 36 Sudoeste 0 -- -- 20
2019-09-09 15:00:00 30.9 21 Sudoeste 39 Sudoeste 0 -- -- 20
2019-09-09 14:00:00 29.5 20 Oeste 34 Oeste 0 -- -- 19
2019-09-09 13:00:00 28.5 20 Sudoeste 34 Sudoeste 0 -- -- 21
2019-09-09 12:00:00 25.4 10 Sur 19 Sur 0 -- -- 26
2019-09-09 11:00:00 22.4 7 Sudoeste 15 Sudoeste 0 -- -- 34
2019-09-09 10:00:00 19.6 13 Sudoeste 19 Sudoeste 0 -- -- 39
2019-09-09 09:00:00 16.8 5 Sur 10 Sudoeste 0 -- -- 46
2019-09-09 08:00:00 16.5 8 Sudoeste 14 Sudoeste 0 -- -- 47
2019-09-09 07:00:00 17.5 6 Sudoeste 10 Sudoeste 0 -- -- 45
2019-09-09 06:00:00 18.6 4 Sudoeste 14 Sudoeste 0 -- -- 42
2019-09-09 05:00:00 19 8 Sudoeste 13 Oeste 0 -- -- 41
2019-09-09 04:00:00 20.4 9 Sudoeste 22 Sudoeste 0 -- -- 37
2019-09-09 03:00:00 21.6 12 Sudoeste 18 Sudoeste 0 -- -- 34
2019-09-09 02:00:00 22.6 4 Oeste 14 Sudoeste 0 -- -- 32
2019-09-09 01:00:00 23.1 10 Sudoeste 18 Sudoeste 0 -- -- 30
2019-09-09 00:00:00 24.3 11 Oeste 17 Oeste 0 -- -- 28
2019-09-08 23:00:00 24.9 9 Oeste 15 Oeste 0 -- -- 27
2019-09-08 22:00:00 27 11 Oeste 21 Oeste 0 -- -- 25
2019-09-08 21:00:00 28.6 9 Sudoeste 12 Oeste 0 -- -- 22
2019-09-08 20:00:00 30.9 7 Oeste 20 Sudoeste 0 -- -- 19
2019-09-08 19:00:00 32.4 10 Oeste 28 Sudoeste 0 -- -- 18
2019-09-08 18:00:00 32.7 13 Noroeste 31 Sudoeste 0 -- -- 18
2019-09-08 17:00:00 32.8 10 Sudoeste 28 Noroeste 0 -- -- 20
2019-09-08 16:00:00 32.5 8 Noroeste 26 Noroeste 0 -- -- 19
2019-09-08 15:00:00 31.3 10 Noroeste 21 Noroeste 0 -- -- 25
2019-09-08 14:00:00 29.4 6 Norte 15 Nordeste 0 -- -- 32
2019-09-08 13:00:00 28.3 6 Nordeste 19 Nordeste 0 -- -- 34
2019-09-08 12:00:00 26.3 8 Nordeste 21 Nordeste 0 -- -- 37
2019-09-08 11:00:00 23.8 14 Nordeste 26 Nordeste 0 -- -- 39
2019-09-08 10:00:00 22.5 12 Nordeste 20 Nordeste 0 -- -- 39
2019-09-08 09:00:00 19 5 Norte 11 Norte 0 -- -- 36
2019-09-08 08:00:00 18.4 6 Norte 11 Nordeste 0 -- -- 35
2019-09-08 07:00:00 18.9 6 Norte 13 Nordeste 0 -- -- 34
2019-09-08 06:00:00 19.2 9 Norte 14 Norte 0 -- -- 33
2019-09-08 05:00:00 19.4 4 Norte 5 Noroeste 0 -- -- 33
2019-09-08 04:00:00 21 3 Oeste 19 Nordeste 0 -- -- 29
2019-09-08 03:00:00 22.8 12 Nordeste 22 Nordeste 0 -- -- 26
2019-09-08 02:00:00 22.5 9 Nordeste 17 Norte 0 -- -- 27
2019-09-08 01:00:00 23.8 10 Nordeste 21 Norte 0 -- -- 26
2019-09-08 00:00:00 24.2 10 Norte 13 Norte 0 -- -- 27
2019-09-07 23:00:00 25 9 Norte 21 Norte 0 -- -- 28
2019-09-07 22:00:00 26.5 9 Norte 18 Norte 0 -- -- 25
2019-09-07 21:00:00 28.2 0 Calma 5 Nordeste 0 -- -- 21
2019-09-07 20:00:00 29.9 4 Nordeste 16 Noroeste 0 -- -- 19
2019-09-07 19:00:00 31.7 4 Sur 15 Norte 0 -- -- 20
2019-09-07 18:00:00 31.3 6 Nordeste 16 Este 0 -- -- 22
2019-09-07 17:00:00 30.9 9 Norte 19 Norte 0 -- -- 22
2019-09-07 16:00:00 29.9 9 Nordeste 21 Nordeste 0 -- -- 24
2019-09-07 15:00:00 29.4 14 Nordeste 28 Este 0 -- -- 27
2019-09-07 14:00:00 27.8 13 Nordeste 30 Nordeste 0 -- -- 31
2019-09-07 13:00:00 26.1 17 Nordeste 36 Nordeste 0 -- -- 35
2019-09-07 12:00:00 23.8 13 Nordeste 26 Nordeste 0 -- -- 36
2019-09-07 11:00:00 21.3 13 Nordeste 22 Norte 0 -- -- 36
2019-09-07 10:00:00 18.6 15 Norte 29 Nordeste 0 -- -- 40
2019-09-07 09:00:00 16.9 18 Norte 28 Norte 0 -- -- 43
2019-09-07 08:00:00 15.5 8 Nordeste 12 Nordeste 0 -- -- 46
2019-09-07 07:00:00 16.7 8 Nordeste 21 Nordeste 0 -- -- 42
2019-09-07 06:00:00 17.6 12 Norte 19 Norte 0 -- -- 40
2019-09-07 05:00:00 18.5 9 Nordeste 17 Norte 0 -- -- 38
2019-09-07 04:00:00 19.3 10 Norte 23 Norte 0 -- -- 36
2019-09-07 03:00:00 20.6 16 Norte 30 Nordeste 0 -- -- 33
2019-09-07 02:00:00 21.5 19 Nordeste 28 Norte 0 -- -- 31
2019-09-07 01:00:00 22.5 18 Norte 33 Nordeste 0 -- -- 29
2019-09-07 00:00:00 23.7 19 Nordeste 31 Nordeste 0 -- -- 25
2019-09-06 23:00:00 24 10 Nordeste 22 Nordeste 0 -- -- 23
2019-09-06 22:00:00 25.5 16 Nordeste 24 Norte 0 -- -- 22
2019-09-06 21:00:00 27.6 8 Nordeste 13 Nordeste 0 -- -- 24
2019-09-06 20:00:00 29.2 10 Nordeste 20 Norte 0 -- -- 22
2019-09-06 19:00:00 30.2 12 Nordeste 20 Nordeste 0 -- -- 20
2019-09-06 18:00:00 30.6 5 Nordeste 18 Nordeste 0 -- -- 21
2019-09-06 17:00:00 30 9 Norte 17 Nordeste 0 -- -- 22
2019-09-06 16:00:00 29.1 12 Nordeste 24 Nordeste 0 -- -- 23
2019-09-06 15:00:00 27.5 11 Norte 26 Nordeste 0 -- -- 25
2019-09-06 14:00:00 26 16 Nordeste 30 Nordeste 0 -- -- 27
2019-09-06 13:00:00 24.2 17 Nordeste 32 Nordeste 0 -- -- 30
2019-09-06 12:00:00 22 19 Nordeste 31 Nordeste 0 -- -- 35
2019-09-06 11:00:00 20.4 18 Nordeste 32 Nordeste 0 -- -- 38
2019-09-06 10:00:00 18.4 16 Nordeste 33 Nordeste 0 -- -- 44
2019-09-06 09:00:00 16.9 17 Nordeste 26 Nordeste 0 -- -- 47
2019-09-06 08:00:00 16.1 12 Nordeste 21 Nordeste 0 -- -- 49
2019-09-06 07:00:00 16.5 9 Nordeste 19 Nordeste 0 -- -- 49
2019-09-06 06:00:00 17.3 12 Norte 19 Norte 0 -- -- 47
2019-09-06 05:00:00 18.2 12 Norte 21 Norte 0 -- -- 44
2019-09-06 04:00:00 19.2 12 Nordeste 19 Norte 0 -- -- 42
2019-09-06 03:00:00 20.4 15 Norte 26 Norte 0 -- -- 37
2019-09-06 02:00:00 21.2 16 Norte 32 Nordeste 0 -- -- 34
2019-09-06 01:00:00 22.2 20 Nordeste 35 Norte 0 -- -- 32
2019-09-06 00:00:00 23.3 18 Norte 28 Norte 0 -- -- 28
2019-09-05 23:00:00 24.4 17 Norte 29 Norte 0 -- -- 26
2019-09-05 22:00:00 26.2 20 Norte 32 Norte 0 -- -- 24
2019-09-05 21:00:00 28.3 19 Nordeste 30 Norte 0 -- -- 23
2019-09-05 20:00:00 30.7 14 Nordeste 30 Nordeste 0 -- -- 23
2019-09-05 19:00:00 32 16 Nordeste 31 Nordeste 0 -- -- 23
2019-09-05 18:00:00 32.6 18 Nordeste 36 Este 0 -- -- 23
2019-09-05 17:00:00 32.6 17 Nordeste 29 Norte 0 -- -- 24
2019-09-05 16:00:00 32 18 Nordeste 32 Nordeste 0 -- -- 25
2019-09-05 15:00:00 30.9 19 Nordeste 34 Nordeste 0 -- -- 26
2019-09-05 14:00:00 29.4 21 Nordeste 36 Nordeste 0 -- -- 28
2019-09-05 13:00:00 28.5 22 Nordeste 42 Nordeste 0 -- -- 29
2019-09-05 12:00:00 26.9 18 Nordeste 39 Norte 0 -- -- 31
2019-09-05 11:00:00 25.5 19 Nordeste 36 Nordeste 0 -- -- 33
2019-09-05 10:00:00 23.2 18 Nordeste 33 Nordeste 0 -- -- 36
2019-09-05 09:00:00 21.1 10 Nordeste 31 Nordeste 0 -- -- 43
2019-09-05 08:00:00 20.7 22 Nordeste 36 Nordeste 0 -- -- 46
2019-09-05 07:00:00 21 14 Norte 36 Norte 0 -- -- 45
2019-09-05 06:00:00 22.3 18 Nordeste 28 Norte 0 -- -- 42
2019-09-05 05:00:00 22.5 12 Nordeste 19 Nordeste 0 -- -- 39
2019-09-05 04:00:00 22.7 10 Norte 12 Norte 0 -- -- 42
2019-09-05 03:00:00 23.4 0 Calma 6 Sur 0 -- -- 39
2019-09-05 02:00:00 24 6 Sudoeste 10 Sudoeste 0 -- -- 37
2019-09-05 01:00:00 25 6 Sudoeste 12 Sudoeste 0 -- -- 34
2019-09-05 00:00:00 26.3 6 Sudoeste 12 Sudoeste 0 -- -- 30
2019-09-04 23:00:00 27.2 8 Oeste 17 Oeste 0 -- -- 28
2019-09-04 22:00:00 29.3 12 Oeste 17 Noroeste 0 -- -- 21
2019-09-04 21:00:00 31.8 11 Oeste 30 Oeste 0 -- -- 18
2019-09-04 20:00:00 34.2 20 Oeste 37 Sudoeste 0 -- -- 16
2019-09-04 19:00:00 35.9 18 Oeste 36 Oeste 0 -- -- 14
2019-09-04 18:00:00 36.6 24 Noroeste 41 Noroeste 0 -- -- 15
2019-09-04 17:00:00 37.2 19 Noroeste 47 Noroeste 0 -- -- 15
2019-09-04 16:00:00 37.3 13 Oeste 50 Sudoeste 0 -- -- 15
2019-09-04 15:00:00 36.2 21 Oeste 37 Oeste 0 -- -- 17
2019-09-04 14:00:00 35.8 13 Oeste 31 Oeste 0 -- -- 18
2019-09-04 13:00:00 34.3 4 Noroeste 10 Oeste 0 -- -- 18
2019-09-04 12:00:00 31.6 4 Norte 12 Norte 0 -- -- 27
2019-09-04 11:00:00 29 4 Norte 8 Nordeste 0 -- -- 31
2019-09-04 10:00:00 25.8 2 Noroeste 4 Oeste 0 -- -- 35
2019-09-04 09:00:00 23.5 0 Calma 5 Este 0 -- -- 38
2019-09-04 08:00:00 22.2 3 Sudeste 6 Nordeste 0 -- -- 40
2019-09-04 07:00:00 22.2 4 Nordeste 9 Norte 0 -- -- 39
2019-09-04 06:00:00 21.9 3 Oeste 6 Oeste 0 -- -- 39
2019-09-04 05:00:00 22.7 4 Noroeste 6 Noroeste 0 -- -- 39
2019-09-04 04:00:00 24.2 3 Sudoeste 10 Oeste 0 -- -- 35
2019-09-04 03:00:00 25.7 4 Oeste 7 Norte 0 -- -- 30
2019-09-04 02:00:00 26.4 4 Noroeste 9 Norte 0 -- -- 30
2019-09-04 01:00:00 27.3 8 Norte 15 Nordeste 0 -- -- 28
2019-09-04 00:00:00 28.7 11 Nordeste 17 Nordeste 0 -- -- 26
2019-09-03 23:00:00 29.2 8 Norte 17 Norte 0 -- -- 26
2019-09-03 22:00:00 31 8 Noroeste 19 Noroeste 0 -- -- 23
2019-09-03 21:00:00 32.7 4 Oeste 14 Noroeste 0 -- -- 17
2019-09-03 20:00:00 35.2 10 Oeste 22 Oeste 0 -- -- 15
2019-09-03 19:00:00 36.8 9 Oeste 21 Sudoeste 0 -- -- 17
2019-09-03 18:00:00 37.1 6 Noroeste 24 Oeste 0 -- -- 19
2019-09-03 17:00:00 37 10 Noroeste 18 Oeste 0 -- -- 20
2019-09-03 16:00:00 35.6 8 Norte 18 Noroeste 0 -- -- 24
2019-09-03 15:00:00 35.3 6 Sur 17 Este 0 -- -- 28
2019-09-03 14:00:00 33.7 6 Este 19 Nordeste 0 -- -- 31
2019-09-03 13:00:00 31.3 9 Nordeste 24 Nordeste 0 -- -- 34
2019-09-03 12:00:00 28.9 12 Nordeste 24 Nordeste 0 -- -- 37
2019-09-03 11:00:00 27.5 16 Nordeste 27 Nordeste 0 -- -- 38
2019-09-03 10:00:00 25.8 5 Norte 12 Norte 0 -- -- 37
2019-09-03 09:00:00 22.7 6 Norte 15 Norte 0 -- -- 43
2019-09-03 08:00:00 22.3 12 Norte 17 Norte 0 -- -- 42
2019-09-03 07:00:00 22.8 9 Nordeste 12 Nordeste 0 -- -- 41
2019-09-03 06:00:00 23 4 Norte 12 Nordeste 0 -- -- 41
2019-09-03 05:00:00 24.1 6 Nordeste 9 Nordeste 0 -- -- 39
2019-09-03 04:00:00 25.1 4 Norte 16 Nordeste 0 -- -- 37
2019-09-03 03:00:00 26.2 9 Nordeste 20 Nordeste 0 -- -- 34
2019-09-03 02:00:00 27.1 12 Nordeste 20 Nordeste 0 -- -- 32
2019-09-03 01:00:00 27.8 12 Nordeste 23 Nordeste 0 -- -- 32
2019-09-03 00:00:00 28.8 14 Nordeste 26 Nordeste 0 -- -- 34
2019-09-02 23:00:00 29.1 10 Nordeste 19 Nordeste 0 -- -- 35
2019-09-02 22:00:00 29.9 5 Norte 10 Nordeste 0 -- -- 32
2019-09-02 21:00:00 31.6 8 Nordeste 19 Norte 0 -- -- 30
2019-09-02 20:00:00 33.4 11 Norte 18 Norte 0 -- -- 28
2019-09-02 19:00:00 35.8 9 Sur 17 Sur 0 -- -- 21
2019-09-02 18:00:00 34.9 8 Nordeste 18 Este 0 -- -- 23
2019-09-02 17:00:00 34.4 8 Este 21 Norte 0 -- -- 28
2019-09-02 16:00:00 34.7 5 Sudeste 23 Este 0 -- -- 28
2019-09-02 15:00:00 33 13 Norte 24 Norte 0 -- -- 32
2019-09-02 14:00:00 31.5 14 Nordeste 27 Nordeste 0 -- -- 36
2019-09-02 13:00:00 29.4 15 Nordeste 31 Nordeste 0 -- -- 40
2019-09-02 12:00:00 27.7 20 Nordeste 35 Nordeste 0 -- -- 43
2019-09-02 11:00:00 25.8 20 Nordeste 35 Nordeste 0 -- -- 46
2019-09-02 10:00:00 24.2 13 Nordeste 24 Nordeste 0 -- -- 49
2019-09-02 09:00:00 22.4 10 Norte 15 Norte 0 -- -- 53
2019-09-02 08:00:00 21.1 10 Nordeste 19 Norte 0 -- -- 55
2019-09-02 07:00:00 22 10 Nordeste 15 Nordeste 0 -- -- 50
2019-09-02 06:00:00 22.7 9 Norte 18 Norte 0 -- -- 48
2019-09-02 05:00:00 23 3 Nordeste 4 Norte 0 -- -- 44
2019-09-02 04:00:00 23.6 3 Norte 8 Este 0 -- -- 42
2019-09-02 03:00:00 24.1 4 Sur 7 Sur 0 -- -- 43
2019-09-02 02:00:00 24.8 3 Sudoeste 6 Sur 0 -- -- 40
2019-09-02 01:00:00 25.8 4 Sudoeste 10 Oeste 0 -- -- 38
2019-09-02 00:00:00 26.7 5 Sudoeste 18 Oeste 0 -- -- 36
2019-09-01 23:00:00 28.2 13 Sudoeste 19 Oeste 0 -- -- 33
2019-09-01 22:00:00 29.6 13 Sudoeste 24 Sudoeste 0 -- -- 31
2019-09-01 21:00:00 31.8 13 Sudoeste 24 Sudoeste 0 -- -- 29
2019-09-01 20:00:00 33.3 17 Oeste 28 Sudoeste 0 -- -- 26
2019-09-01 19:00:00 35.2 9 Oeste 30 Sudoeste 0 -- -- 23
2019-09-01 18:00:00 36.1 18 Oeste 32 Sudoeste 0 -- -- 22
2019-09-01 17:00:00 35.1 10 Oeste 32 Oeste 0 -- -- 24
2019-09-01 16:00:00 35.3 15 Sudoeste 28 Sudoeste 0 -- -- 24
2019-09-01 15:00:00 34.7 12 Oeste 25 Oeste 0 -- -- 24
2019-09-01 14:00:00 33.4 8 Sudoeste 17 Sudoeste 0 -- -- 27
2019-09-01 13:00:00 31.3 7 Sur 16 Sudoeste 0 -- -- 34
2019-09-01 12:00:00 28.4 4 Sudoeste 12 Sudoeste 0 -- -- 41
2019-09-01 11:00:00 25 5 Noroeste 8 Sudoeste 0 -- -- 51
2019-09-01 10:00:00 21.4 4 Oeste 9 Sudoeste 0 -- -- 62
2019-09-01 09:00:00 19.2 3 Sudoeste 6 Sur 0 -- -- 71
2019-09-01 08:00:00 18.1 0 Calma 6 Sur 0 -- -- 73
2019-09-01 07:00:00 18.3 3 Oeste 9 Sudoeste 0 -- -- 71
2019-09-01 06:00:00 18.9 5 Sudoeste 12 Sudoeste 0 -- -- 68
2019-09-01 05:00:00 20 6 Sudoeste 11 Sudoeste 0 -- -- 63
2019-09-01 04:00:00 21.1 5 Sudoeste 12 Sudoeste 0 -- -- 57
2019-09-01 03:00:00 21.9 3 Sur 6 Sudeste 0 -- -- 54
2019-09-01 02:00:00 23 3 Sudoeste 14 Oeste 0 -- -- 50
2019-09-01 01:00:00 24.3 11 Oeste 15 Sudoeste 0 -- -- 45
2019-09-01 00:00:00 25.7 11 Sudoeste 27 Sudoeste 0 -- -- 36
2019-08-31 23:00:00 27.4 18 Sudoeste 30 Sudoeste 0 -- -- 33
2019-08-31 22:00:00 29.2 18 Sudoeste 28 Sudoeste 0 -- -- 30
2019-08-31 21:00:00 31.4 20 Sudoeste 35 Sudoeste 0 -- -- 29
2019-08-31 20:00:00 33.7 18 Oeste 32 Oeste 0 -- -- 26
2019-08-31 19:00:00 35.7 17 Sudoeste 35 Sudoeste 0 -- -- 24
2019-08-31 18:00:00 36.1 14 Sudoeste 27 Sudoeste 0 -- -- 23
2019-08-31 17:00:00 37.1 15 Sudoeste 29 Sudoeste 0 -- -- 22
2019-08-31 16:00:00 36.7 7 Sudeste 19 Sur 0 -- -- 23
2019-08-31 15:00:00 34.7 3 Oeste 15 Este 0 -- -- 26
2019-08-31 14:00:00 34 7 Sur 22 Sudeste 0 -- -- 27
2019-08-31 13:00:00 32.5 8 Sudeste 23 Este 0 -- -- 29
2019-08-31 12:00:00 30.7 13 Este 24 Este 0 -- -- 32
2019-08-31 11:00:00 29.2 12 Sudeste 20 Sudeste 0 -- -- 35
2019-08-31 10:00:00 26.4 9 Este 14 Este 0 -- -- 42
2019-08-31 09:00:00 23.2 3 Norte 5 Nordeste 0 -- -- 50
2019-08-31 08:00:00 22.4 4 Nordeste 11 Nordeste 0 -- -- 50
2019-08-31 07:00:00 22.9 7 Este 11 Este 0 -- -- 49
2019-08-31 06:00:00 23.4 5 Nordeste 12 Nordeste 0 -- -- 47
2019-08-31 05:00:00 23.9 6 Este 10 Nordeste 0 -- -- 47
2019-08-31 04:00:00 24.6 7 Nordeste 12 Nordeste 0 -- -- 44
2019-08-31 03:00:00 25.5 8 Nordeste 13 Norte 0 -- -- 42
2019-08-31 02:00:00 26.9 9 Nordeste 23 Nordeste 0 -- -- 39
2019-08-31 01:00:00 27.1 8 Norte 15 Nordeste 0 -- -- 37
2019-08-31 00:00:00 27.5 0 Calma 12 Oeste 0 -- -- 36
2019-08-30 23:00:00 29.1 10 Noroeste 21 Sudoeste 0 -- -- 33
2019-08-30 22:00:00 31 4 Oeste 10 Oeste 0 -- -- 26
2019-08-30 21:00:00 32.9 6 Oeste 18 Oeste 0 -- -- 24
2019-08-30 20:00:00 35 12 Oeste 23 Sudoeste 0 -- -- 22
2019-08-30 19:00:00 37.3 6 Sudoeste 21 Sur 0 -- -- 19
2019-08-30 18:00:00 37.1 15 Sudoeste 30 Sudoeste 0 -- -- 20
2019-08-30 17:00:00 36.6 16 Sudeste 30 Este 0 -- -- 21
2019-08-30 16:00:00 36.4 6 Noroeste 17 Sudeste 0 -- -- 22
2019-08-30 15:00:00 35 8 Sudeste 15 Sudeste 0 -- -- 24
2019-08-30 14:00:00 34.3 5 Sur 15 Sudeste 0 -- -- 25
2019-08-30 13:00:00 32.9 6 Sudeste 19 Sudeste 0 -- -- 28
2019-08-30 12:00:00 30.2 11 Este 17 Este 0 -- -- 33
2019-08-30 11:00:00 27.5 6 Este 12 Este 0 -- -- 38
2019-08-30 10:00:00 22.8 3 Noroeste 8 Norte 0 -- -- 50
2019-08-30 09:00:00 20.6 2 Noroeste 3 Noroeste 0 -- -- 55
2019-08-30 08:00:00 19.6 0 Calma 4 Oeste 0 -- -- 55
2019-08-30 07:00:00 20.2 3 Oeste 6 Noroeste 0 -- -- 53
2019-08-30 06:00:00 21.1 4 Noroeste 6 Noroeste 0 -- -- 51
2019-08-30 05:00:00 21.3 0 Calma 5 Noroeste 0 -- -- 52
2019-08-30 04:00:00 22.8 3 Oeste 13 Sudoeste 0 -- -- 44
2019-08-30 03:00:00 24.1 8 Sudoeste 13 Sudoeste 0 -- -- 42
2019-08-30 02:00:00 24.7 6 Sudoeste 11 Sudoeste 0 -- -- 42
2019-08-30 01:00:00 25.4 6 Sudoeste 11 Sudoeste 0 -- -- 40
2019-08-30 00:00:00 26.5 5 Oeste 14 Sudoeste 0 -- -- 37
2019-08-29 23:00:00 28 10 Oeste 23 Sudoeste 0 -- -- 32
2019-08-29 22:00:00 29.5 14 Sudoeste 22 Sudoeste 0 -- -- 28
2019-08-29 21:00:00 31.7 14 Sudoeste 29 Sudoeste 0 -- -- 25
2019-08-29 20:00:00 33.5 14 Oeste 30 Oeste 0 -- -- 22
2019-08-29 19:00:00 35.1 15 Oeste 26 Oeste 0 -- -- 21
2019-08-29 18:00:00 36.3 9 Sudoeste 28 Sudoeste 0 -- -- 21
2019-08-29 17:00:00 36.5 9 Oeste 25 Sudoeste 0 -- -- 20
2019-08-29 16:00:00 35.9 9 Sur 28 Sur 0 -- -- 21
2019-08-29 15:00:00 34.8 12 Sudoeste 22 Sudoeste 0 -- -- 22
2019-08-29 14:00:00 33.2 10 Sur 22 Sudeste 0 -- -- 24
2019-08-29 13:00:00 31.2 5 Este 12 Sudeste 0 -- -- 35
2019-08-29 12:00:00 28.2 4 Este 8 Este 0 -- -- 44
2019-08-29 11:00:00 25.3 5 Sudeste 11 Sudeste 0 -- -- 52
2019-08-29 10:00:00 21.2 3 Oeste 5 Oeste 0 -- -- 67
2019-08-29 09:00:00 18.6 2 Oeste 4 Oeste 0 -- -- 77
2019-08-29 08:00:00 17.9 0 Calma 7 Sudoeste 0 -- -- 76
2019-08-29 07:00:00 18.6 2 Sudoeste 4 Sur 0 -- -- 73
2019-08-29 06:00:00 19 2 Sudeste 3 Sur 0 -- -- 71
2019-08-29 05:00:00 19.9 0 Calma 7 Sudoeste 0 -- -- 66
2019-08-29 04:00:00 21 5 Sudoeste 14 Sudoeste 0 -- -- 62
2019-08-29 03:00:00 22.3 6 Sudoeste 13 Sudoeste 0 -- -- 58
2019-08-29 02:00:00 23.6 7 Sudoeste 12 Sudoeste 0 -- -- 54
2019-08-29 01:00:00 24.4 6 Sudoeste 13 Sudoeste 0 -- -- 51
2019-08-29 00:00:00 25.9 12 Sudoeste 18 Sudoeste 0 -- -- 46
2019-08-28 23:00:00 27.1 12 Sudoeste 18 Sudoeste 0 -- -- 35
2019-08-28 22:00:00 28.7 12 Sudoeste 15 Sudoeste 0 -- -- 30
2019-08-28 21:00:00 31.1 9 Sudoeste 16 Sudoeste 0 -- -- 28
2019-08-28 20:00:00 32.9 8 Sudeste 13 Sur 0 -- -- 24
2019-08-28 19:00:00 33.8 7 Este 15 Sudeste 0 -- -- 25
2019-08-28 18:00:00 34.7 9 Sudoeste 27 Sur 0 -- -- 24
2019-08-28 17:00:00 34 5 Noroeste 22 Sur 0 -- -- 24
2019-08-28 16:00:00 33.3 10 Sur 26 Sur 0 -- -- 26
2019-08-28 15:00:00 32.6 7 Sur 25 Sudoeste 0 -- -- 30
2019-08-28 14:00:00 31 7 Sudoeste 18 Sudoeste 0 -- -- 37
2019-08-28 13:00:00 29 6 Sur 14 Sur 0 -- -- 42
2019-08-28 12:00:00 26.6 3 Sur 13 Sudoeste 0 -- -- 53
2019-08-28 11:00:00 23.4 4 Oeste 11 Sudoeste 0 -- -- 66
2019-08-28 10:00:00 21.1 2 Noroeste 6 Sudoeste 0 -- -- 75
2019-08-28 09:00:00 18.5 4 Sudoeste 9 Sudoeste 0 -- -- 85
2019-08-28 08:00:00 17.9 5 Sudoeste 9 Sudoeste 0 -- -- 86
2019-08-28 07:00:00 18.6 2 Noroeste 6 Noroeste 0 -- -- 83
2019-08-28 06:00:00 19.2 2 Oeste 7 Sudoeste 0 -- -- 79
2019-08-28 05:00:00 19.9 5 Sudoeste 10 Sudoeste 0 -- -- 78
2019-08-28 04:00:00 20.6 5 Sudoeste 13 Sur 0 -- -- 75
2019-08-28 03:00:00 21.7 6 Sudoeste 17 Oeste 0 -- -- 70
2019-08-28 02:00:00 22.8 11 Sudoeste 19 Sudoeste 0 -- -- 65
2019-08-28 01:00:00 23.6 13 Sudoeste 18 Sudoeste 0 -- -- 59
2019-08-28 00:00:00 24.8 11 Sudoeste 20 Sudoeste 0 -- -- 50
2019-08-27 23:00:00 26.3 13 Sudoeste 18 Sudoeste 0 -- -- 43
2019-08-27 22:00:00 27 5 Sudoeste 7 Sur 0 -- -- 41
2019-08-27 21:00:00 29 2 Sudoeste 10 Sudoeste 0 -- -- 36
2019-08-27 20:00:00 30.4 7 Oeste 14 Oeste 0 -- -- 34
2019-08-27 19:00:00 31.3 8 Sudeste 26 Sudoeste 0 -- -- 32
2019-08-27 18:00:00 31.4 8 Sudoeste 16 Sudoeste 0 -- -- 32
2019-08-27 17:00:00 30.3 3 Noroeste 17 Oeste 0 -- -- 35
2019-08-27 16:00:00 30.7 11 Sudoeste 23 Oeste 0 -- -- 35
2019-08-27 15:00:00 29.5 5 Noroeste 17 Oeste 0 -- -- 39
2019-08-27 14:00:00 28 5 Sudoeste 14 Noroeste 0 -- -- 43
2019-08-27 13:00:00 26.6 4 Oeste 11 Oeste 0 -- -- 46
2019-08-27 12:00:00 25.2 5 Norte 13 Sudeste 0 -- -- 50
2019-08-27 11:00:00 23.5 7 Este 14 Este 0 -- -- 57
2019-08-27 10:00:00 21.2 10 Nordeste 15 Nordeste 0 -- -- 65
2019-08-27 09:00:00 18.5 4 Norte 9 Norte 0 -- -- 77
2019-08-27 08:00:00 17.2 4 Nordeste 9 Nordeste 0 -- -- 82
2019-08-27 07:00:00 17.6 3 Norte 14 Este 0 -- -- 82
2019-08-27 06:00:00 18.4 13 Este 17 Este 0 -- -- 77
2019-08-27 05:00:00 18.9 9 Este 14 Este 0 -- -- 74
2019-08-27 04:00:00 19.7 6 Sudeste 9 Sudeste 0 -- -- 70
2019-08-27 03:00:00 20.2 4 Noroeste 10 Nordeste 0 -- -- 67
2019-08-27 02:00:00 21 5 Norte 11 Norte 0 -- -- 64
2019-08-27 01:00:00 21.6 7 Norte 10 Noroeste 0 -- -- 61
2019-08-27 00:00:00 21.9 3 Noroeste 15 Noroeste 0 -- -- 61
2019-08-26 23:00:00 22.9 8 Oeste 16 Oeste 0 -- -- 58
2019-08-26 22:00:00 23.9 7 Oeste 13 Oeste 0 -- -- 53
2019-08-26 21:00:00 24.3 4 Oeste 26 Oeste 0 -- -- 50
2019-08-26 20:00:00 25.9 17 Oeste 36 Noroeste 0 -- -- 43
2019-08-26 19:00:00 27.9 20 Oeste 32 Oeste 0 -- -- 35
2019-08-26 18:00:00 28.3 15 Oeste 26 Oeste 0 -- -- 40
2019-08-26 17:00:00 27.8 10 Oeste 22 Sudoeste 0 -- -- 45
2019-08-26 16:00:00 26.8 4 Sudoeste 17 Norte 0 -- -- 51
2019-08-26 15:00:00 24.7 5 Norte 12 Noroeste 0 -- -- 57
2019-08-26 14:00:00 22.4 5 Noroeste 20 Noroeste 0 -- -- 69
2019-08-26 13:00:00 20.5 9 Oeste 24 Sur 0 -- -- 76
2019-08-26 12:00:00 18.8 9 Sur 40 Nordeste 0.4 -- -- 74
2019-08-26 11:00:00 17.7 21 Norte 37 Norte 1.6 -- -- 78
2019-08-26 10:00:00 16.7 9 Sur 27 Sur 2.4 -- -- 87
2019-08-26 09:00:00 16.9 4 Este 43 Oeste 2.2 -- -- 83
2019-08-26 08:00:00 18.7 17 Oeste 42 Noroeste 0 -- -- 69
2019-08-26 07:00:00 19.6 5 Oeste 17 Oeste 0.4 -- -- 85
2019-08-26 06:00:00 19.4 16 Norte 25 Norte 2.8 -- -- 83
2019-08-26 05:00:00 21.9 10 Norte 20 Norte 0.2 -- -- 66
2019-08-26 04:00:00 22.3 6 Norte 14 Norte 0 -- -- 57
2019-08-26 03:00:00 22.9 3 Nordeste 25 Norte 0 -- -- 54
2019-08-26 02:00:00 23.3 15 Norte 29 Norte 0 -- -- 53
2019-08-26 01:00:00 24.2 21 Norte 28 Norte 0 -- -- 49
2019-08-26 00:00:00 25 7 Nordeste 13 Norte 0 -- -- 46
2019-08-25 23:00:00 25.9 9 Noroeste 27 Oeste 0 -- -- 43
2019-08-25 22:00:00 27.2 22 Oeste 36 Sudoeste 0 -- -- 35
2019-08-25 21:00:00 28.6 21 Oeste 36 Oeste 0 -- -- 35
2019-08-25 20:00:00 31.7 14 Oeste 34 Sudoeste 0 -- -- 29
2019-08-25 19:00:00 31.8 22 Oeste 44 Sudoeste 0 -- -- 29
2019-08-25 18:00:00 33.9 18 Sudoeste 35 Oeste 0 -- -- 26
2019-08-25 17:00:00 34.1 21 Sudoeste 36 Sudoeste 0 -- -- 24
2019-08-25 16:00:00 33 24 Sudoeste 34 Sudoeste 0 -- -- 28
2019-08-25 15:00:00 33.8 14 Sudoeste 33 Nordeste 0 -- -- 28
2019-08-25 14:00:00 33.1 7 Sudeste 25 Sudeste 0 -- -- 28
2019-08-25 13:00:00 31.9 7 Sur 22 Este 0 -- -- 30
2019-08-25 12:00:00 29.7 13 Este 22 Este 0 -- -- 33
2019-08-25 11:00:00 27.3 8 Este 13 Este 0 -- -- 38
2019-08-25 10:00:00 23.5 3 Norte 8 Sudoeste 0 -- -- 46
2019-08-25 09:00:00 21.3 2 Noroeste 8 Sudoeste 0 -- -- 51
2019-08-25 08:00:00 20.7 6 Sudoeste 14 Sudoeste 0 -- -- 52
2019-08-25 07:00:00 21.5 7 Sudoeste 13 Sudoeste 0 -- -- 48
2019-08-25 06:00:00 22.7 4 Oeste 14 Sur 0 -- -- 45
2019-08-25 05:00:00 23.8 5 Sur 19 Sur 0 -- -- 42
2019-08-25 04:00:00 24.2 8 Sur 13 Sur 0 -- -- 41
2019-08-25 03:00:00 24.9 2 Sur 6 Sur 0 -- -- 40
2019-08-25 02:00:00 26 5 Sudoeste 9 Sudoeste 0 -- -- 38
2019-08-25 01:00:00 27 5 Sudoeste 13 Sudoeste 0 -- -- 35
2019-08-25 00:00:00 28.7 12 Sudoeste 17 Sudoeste 0 -- -- 32
2019-08-24 23:00:00 30.3 10 Sudoeste 24 Oeste 0 -- -- 30
2019-08-24 22:00:00 32.1 15 Oeste 33 Oeste 0 -- -- 28
2019-08-24 21:00:00 34.5 5 Sur 9 Sur 0 -- -- 19
2019-08-24 20:00:00 36.4 9 Sur 19 Sudoeste 0 -- -- 18
2019-08-24 19:00:00 37.6 4 Sur 21 Sur 0 -- -- 17
2019-08-24 18:00:00 37.9 13 Sudeste 22 Sudeste 0 -- -- 16
2019-08-24 17:00:00 38 10 Sudeste 24 Sudeste 0 -- -- 16
2019-08-24 16:00:00 37.9 6 Noroeste 23 Este 0 -- -- 16
2019-08-24 15:00:00 36.8 10 Este 23 Este 0 -- -- 18
2019-08-24 14:00:00 35.9 14 Sudeste 26 Sudeste 0 -- -- 17
2019-08-24 13:00:00 34.3 13 Este 24 Este 0 -- -- 19
2019-08-24 12:00:00 31.9 11 Este 19 Este 0 -- -- 22
2019-08-24 11:00:00 29.6 9 Este 16 Nordeste 0 -- -- 25
2019-08-24 10:00:00 27.4 10 Este 18 Este 0 -- -- 30
2019-08-24 09:00:00 25.7 6 Este 15 Nordeste 0 -- -- 33
2019-08-24 08:00:00 23.5 8 Este 14 Nordeste 0 -- -- 40
2019-08-24 07:00:00 24.3 5 Norte 7 Norte 0 -- -- 40
2019-08-24 06:00:00 24.9 4 Norte 12 Norte 0 -- -- 39
2019-08-24 05:00:00 25.7 9 Norte 11 Norte 0 -- -- 38
2019-08-24 04:00:00 25.7 4 Norte 9 Norte 0 -- -- 39
2019-08-24 03:00:00 26.6 5 Nordeste 15 Nordeste 0 -- -- 36
2019-08-24 02:00:00 27.1 6 Norte 10 Norte 0 -- -- 32
2019-08-24 01:00:00 26.6 8 Norte 14 Norte 0 -- -- 31
2019-08-24 00:00:00 28.5 2 Noroeste 9 Este 0 -- -- 26
2019-08-23 23:00:00 30.7 8 Este 10 Este 0 -- -- 23
2019-08-23 22:00:00 32.1 9 Nordeste 12 Nordeste 0 -- -- 22
2019-08-23 21:00:00 33.6 6 Nordeste 13 Nordeste 0 -- -- 20
2019-08-23 20:00:00 35.1 3 Este 18 Este 0 -- -- 20
2019-08-23 19:00:00 36 7 Nordeste 22 Norte 0 -- -- 20
2019-08-23 18:00:00 36.5 10 Nordeste 20 Nordeste 0 -- -- 20
2019-08-23 17:00:00 36.5 9 Sur 20 Sudeste 0 -- -- 20
2019-08-23 16:00:00 36.7 9 Este 23 Este 0 -- -- 21
2019-08-23 15:00:00 35.4 8 Sudeste 21 Nordeste 0 -- -- 23
2019-08-23 14:00:00 34.4 14 Sudeste 31 Este 0 -- -- 26
2019-08-23 13:00:00 33.1 10 Este 24 Este 0 -- -- 29
2019-08-23 12:00:00 32 13 Este 30 Este 0 -- -- 27
2019-08-23 11:00:00 29.3 10 Nordeste 25 Este 0 -- -- 29
2019-08-23 10:00:00 26.9 12 Nordeste 21 Nordeste 0 -- -- 30
2019-08-23 09:00:00 24.1 7 Este 15 Este 0 -- -- 32
2019-08-23 08:00:00 22.8 8 Nordeste 14 Este 0 -- -- 34
2019-08-23 07:00:00 23.7 8 Nordeste 14 Nordeste 0 -- -- 30
2019-08-23 06:00:00 24.1 5 Nordeste 17 Nordeste 0 -- -- 28
2019-08-23 05:00:00 25 10 Nordeste 16 Nordeste 0 -- -- 27
2019-08-23 04:00:00 25.4 10 Este 18 Este 0 -- -- 33
2019-08-23 03:00:00 26 11 Este 18 Nordeste 0 -- -- 33
2019-08-23 02:00:00 26.8 7 Nordeste 17 Nordeste 0 -- -- 34
2019-08-23 01:00:00 27.3 11 Este 17 Este 0 -- -- 33
2019-08-23 00:00:00 28 2 Norte 8 Nordeste 0 -- -- 30